createdAt,value
2019-05-23T00:00:42.815Z,13.0
2019-05-23T00:01:42.866Z,13.0
2019-05-23T00:05:43.241Z,12.9
2019-05-23T00:06:43.278Z,12.8
2019-05-23T00:10:43.513Z,12.7
2019-05-23T00:12:23.539Z,12.6
2019-05-23T00:13:23.549Z,12.6
2019-05-23T00:14:23.558Z,12.7
2019-05-23T00:19:33.715Z,12.6
2019-05-23T00:20:43.703Z,12.5
2019-05-23T00:21:43.699Z,12.4
2019-05-23T00:22:23.721Z,12.5
2019-05-23T00:23:23.760Z,12.5
2019-05-23T00:24:23.748Z,12.6
2019-05-23T00:25:33.786Z,12.5
2019-05-23T00:26:34.913Z,12.5
2019-05-23T00:27:33.850Z,12.4
2019-05-23T00:28:33.889Z,12.4
2019-05-23T00:29:33.899Z,12.4
2019-05-23T00:30:43.948Z,12.4
2019-05-23T00:31:43.967Z,12.3
2019-05-23T00:32:34.142Z,12.4
2019-05-23T00:33:34.006Z,12.3
2019-05-23T00:34:34.024Z,12.4
2019-05-23T00:35:44.034Z,12.3
2019-05-23T00:36:34.079Z,12.3
2019-05-23T00:37:24.081Z,12.2
2019-05-23T00:38:24.148Z,12.2
2019-05-23T00:39:24.112Z,12.3
2019-05-23T00:40:34.133Z,12.3
2019-05-23T00:41:34.171Z,12.6
2019-05-23T00:43:24.207Z,12.6
2019-05-23T00:44:14.289Z,12.7
2019-05-23T00:45:24.286Z,12.7
2019-05-23T00:46:24.291Z,12.7
2019-05-23T00:47:14.326Z,12.7
2019-05-23T00:48:14.513Z,12.6
2019-05-23T00:49:14.380Z,12.6
2019-05-23T00:50:24.399Z,12.7
2019-05-23T00:51:24.428Z,12.6
2019-05-23T00:52:14.487Z,12.6
2019-05-23T00:53:14.493Z,12.6
2019-05-23T00:54:14.562Z,12.5
2019-05-23T00:55:24.564Z,12.5
2019-05-23T00:56:24.559Z,12.5
2019-05-23T00:57:14.570Z,12.5
2019-05-23T00:58:14.588Z,12.4
2019-05-23T00:59:26.300Z,12.5
2019-05-23T01:00:25.193Z,12.4
2019-05-23T01:01:25.110Z,12.4
2019-05-23T01:02:15.119Z,12.4
2019-05-23T01:03:15.161Z,12.5
2019-05-23T01:04:15.166Z,12.4
2019-05-23T01:05:15.182Z,12.4
2019-05-23T01:06:15.182Z,12.5
2019-05-23T01:07:15.200Z,12.5
2019-05-23T01:08:15.329Z,12.5
2019-05-23T01:09:15.255Z,12.6
2019-05-23T01:10:25.269Z,12.6
2019-05-23T01:11:25.294Z,12.5
2019-05-23T01:12:15.356Z,12.5
2019-05-23T01:13:15.330Z,12.6
2019-05-23T01:14:15.374Z,12.5
2019-05-23T01:15:25.377Z,12.4
2019-05-23T01:16:25.420Z,12.5
2019-05-23T01:17:15.428Z,12.4
2019-05-23T01:18:15.430Z,12.3
2019-05-23T01:19:15.492Z,12.3
2019-05-23T01:20:15.472Z,12.4
2019-05-23T01:21:15.488Z,12.2
2019-05-23T01:22:16.667Z,12.3
2019-05-23T01:23:15.574Z,12.2
2019-05-23T01:24:15.602Z,12.2
2019-05-23T01:25:25.599Z,12.1
2019-05-23T01:26:25.632Z,12.0
2019-05-23T01:27:15.637Z,12.0
2019-05-23T01:28:15.677Z,12.0
2019-05-23T01:29:15.730Z,11.9
2019-05-23T01:30:25.707Z,11.9
2019-05-23T01:31:25.715Z,11.9
2019-05-23T01:32:15.746Z,11.9
2019-05-23T01:33:16.853Z,11.7
2019-05-23T01:34:15.812Z,11.7
2019-05-23T01:35:25.817Z,11.7
2019-05-23T01:36:25.838Z,11.8
2019-05-23T01:37:15.864Z,11.7
2019-05-23T01:38:15.868Z,11.7
2019-05-23T01:39:15.912Z,11.6
2019-05-23T01:40:25.925Z,11.5
2019-05-23T01:41:25.939Z,11.6
2019-05-23T01:42:15.966Z,11.5
2019-05-23T01:43:15.960Z,11.5
2019-05-23T01:44:16.140Z,11.5
2019-05-23T01:45:26.024Z,11.6
2019-05-23T01:46:26.025Z,11.5
2019-05-23T01:47:16.072Z,11.5
2019-05-23T01:48:16.198Z,11.5
2019-05-23T01:49:16.206Z,11.4
2019-05-23T01:50:26.226Z,11.4
2019-05-23T01:51:26.264Z,11.5
2019-05-23T01:52:16.312Z,11.4
2019-05-23T01:53:16.381Z,11.4
2019-05-23T01:54:16.401Z,11.3
2019-05-23T01:55:26.547Z,11.3
2019-05-23T01:56:26.451Z,11.4
2019-05-23T01:57:16.458Z,11.4
2019-05-23T01:58:16.481Z,11.2
2019-05-23T01:59:16.507Z,11.4
2019-05-23T02:00:26.775Z,11.4
2019-05-23T02:01:26.739Z,11.5
2019-05-23T02:02:16.753Z,11.4
2019-05-23T02:03:16.785Z,11.5
2019-05-23T02:04:16.860Z,11.6
2019-05-23T02:05:26.925Z,11.4
2019-05-23T02:06:28.335Z,11.6
2019-05-23T02:07:16.931Z,11.6
2019-05-23T02:08:17.088Z,11.5
2019-05-23T02:09:16.963Z,11.6
2019-05-23T02:10:27.013Z,11.5
2019-05-23T02:11:27.114Z,11.6
2019-05-23T02:12:17.248Z,11.6
2019-05-23T02:15:17.292Z,11.7
2019-05-23T02:16:17.307Z,11.7
2019-05-23T02:20:17.356Z,11.7
2019-05-23T02:21:17.870Z,11.7
2019-05-23T02:22:17.447Z,11.8
2019-05-23T02:23:17.406Z,11.8
2019-05-23T02:24:17.409Z,11.8
2019-05-23T02:25:27.424Z,11.9
2019-05-23T02:30:32.719Z,12.0
2019-05-23T02:35:17.794Z,12.1
2019-05-23T02:40:17.843Z,12.1
2019-05-23T02:45:18.049Z,12.2
2019-05-23T02:47:08.253Z,12.3
2019-05-23T02:50:18.237Z,12.4
2019-05-23T02:55:18.323Z,12.4
2019-05-23T03:00:18.483Z,12.3
2019-05-23T03:05:18.662Z,12.3
2019-05-23T03:10:18.770Z,12.3
2019-05-23T03:15:18.885Z,12.4
2019-05-23T03:20:28.987Z,12.4
2019-05-23T03:23:09.028Z,12.4
2019-05-23T03:25:29.193Z,12.5
2019-05-23T03:30:29.354Z,12.5
2019-05-23T03:35:29.493Z,12.5
2019-05-23T03:40:29.578Z,12.5
2019-05-23T03:42:09.742Z,12.6
2019-05-23T03:43:09.701Z,12.6
2019-05-23T03:44:09.705Z,12.6
2019-05-23T03:45:29.718Z,12.6
2019-05-23T03:50:29.870Z,12.7
2019-05-23T03:52:10.002Z,12.6
2019-05-23T03:55:29.995Z,12.7
2019-05-23T03:56:11.016Z,12.6
2019-05-23T04:00:20.127Z,12.6
2019-05-23T04:05:20.341Z,12.5
2019-05-23T04:10:20.432Z,12.5
2019-05-23T04:15:20.580Z,12.4
2019-05-23T04:16:20.596Z,12.4
2019-05-23T04:17:20.617Z,12.4
2019-05-23T04:18:20.653Z,12.4
2019-05-23T04:19:30.676Z,12.4
2019-05-23T04:20:30.687Z,12.4
2019-05-23T04:23:10.791Z,12.3
2019-05-23T04:25:20.877Z,12.3
2019-05-23T04:30:20.978Z,12.3
2019-05-23T04:35:21.223Z,12.3
2019-05-23T04:36:21.227Z,12.3
2019-05-23T04:37:21.242Z,12.4
2019-05-23T04:38:21.289Z,12.3
2019-05-23T04:39:31.326Z,12.3
2019-05-23T04:40:31.319Z,12.4
2019-05-23T04:41:21.367Z,12.4
2019-05-23T04:42:21.429Z,12.3
2019-05-23T04:43:21.446Z,12.3
2019-05-23T04:46:21.605Z,12.4
2019-05-23T04:47:21.631Z,12.3
2019-05-23T04:48:21.654Z,12.5
2019-05-23T04:51:31.711Z,12.4
2019-05-23T04:52:31.870Z,12.4
2019-05-23T04:53:21.726Z,12.4
2019-05-23T05:00:31.868Z,12.4
2019-05-23T05:01:21.874Z,12.5
2019-05-23T05:02:25.887Z,12.5
2019-05-23T05:03:22.072Z,12.5
2019-05-23T05:06:22.045Z,12.6
2019-05-23T05:07:22.066Z,12.4
2019-05-23T05:08:22.123Z,12.6
2019-05-23T05:11:22.190Z,12.6
2019-05-23T05:12:22.234Z,12.7
2019-05-23T05:13:22.260Z,12.6
2019-05-23T05:20:32.414Z,12.7
2019-05-23T05:21:22.416Z,12.8
2019-05-23T05:22:22.450Z,12.9
2019-05-23T05:23:22.495Z,12.8
2019-05-23T05:29:12.902Z,12.9
2019-05-23T05:30:32.813Z,13.0
2019-05-23T05:31:22.799Z,13.0
2019-05-23T05:32:22.817Z,13.1
2019-05-23T05:33:22.843Z,13.1
2019-05-23T05:40:33.062Z,13.4
2019-05-23T05:45:33.344Z,13.7
2019-05-23T05:50:33.369Z,13.9
2019-05-23T05:55:33.377Z,14.1
2019-05-23T05:57:14.474Z,14.2
2019-05-23T06:00:33.528Z,14.6
2019-05-23T06:02:03.556Z,14.9
2019-05-23T06:03:05.390Z,15.1
2019-05-23T06:04:03.640Z,15.4
2019-05-23T06:05:23.646Z,15.7
2019-05-23T06:06:13.741Z,15.9
2019-05-23T06:07:13.766Z,16.0
2019-05-23T06:08:14.828Z,16.2
2019-05-23T06:09:13.765Z,16.4
2019-05-23T06:10:33.786Z,16.6
2019-05-23T06:13:13.853Z,16.9
2019-05-23T06:14:33.869Z,17.1
2019-05-23T06:15:33.887Z,17.1
2019-05-23T06:19:34.125Z,17.5
2019-05-23T06:20:34.156Z,17.4
2019-05-23T06:24:43.819Z,17.1
2019-05-23T06:25:34.197Z,17.3
2019-05-23T06:29:34.345Z,17.6
2019-05-23T06:30:34.361Z,17.6
2019-05-23T06:34:34.492Z,18.0
2019-05-23T06:35:34.508Z,18.1
2019-05-23T06:39:34.705Z,18.5
2019-05-23T06:40:34.713Z,18.5
2019-05-23T06:43:14.964Z,18.7
2019-05-23T06:44:34.832Z,18.9
2019-05-23T06:45:34.863Z,19.0
2019-05-23T06:49:34.960Z,19.4
2019-05-23T06:50:35.013Z,19.4
2019-05-23T06:54:35.134Z,19.5
2019-05-23T06:55:25.144Z,19.5
2019-05-23T06:59:35.213Z,19.5
2019-05-23T07:00:35.231Z,19.6
2019-05-23T07:01:25.275Z,19.6
2019-05-23T07:02:25.260Z,19.7
2019-05-23T07:03:40.338Z,19.6
2019-05-23T07:06:35.355Z,20.0
2019-05-23T07:07:25.356Z,19.7
2019-05-23T07:08:25.564Z,19.9
2019-05-23T07:11:35.482Z,20.4
2019-05-23T07:12:35.486Z,20.3
2019-05-23T07:13:35.511Z,20.5
2019-05-23T07:14:55.541Z,20.5
2019-05-23T07:16:05.569Z,20.3
2019-05-23T07:17:05.570Z,20.3
2019-05-23T07:18:05.747Z,20.2
2019-05-23T07:19:05.603Z,20.2
2019-05-23T07:20:25.619Z,19.9
2019-05-23T07:23:05.695Z,20.0
2019-05-23T07:24:05.875Z,20.2
2019-05-23T07:25:25.830Z,20.4
2019-05-23T07:29:35.945Z,20.7
2019-05-23T07:30:35.966Z,20.8
2019-05-23T07:31:26.031Z,20.6
2019-05-23T07:32:26.050Z,20.8
2019-05-23T07:33:26.072Z,20.7
2019-05-23T07:36:36.195Z,20.8
2019-05-23T07:37:26.118Z,21.0
2019-05-23T07:38:26.129Z,21.0
2019-05-23T07:39:26.166Z,21.0
2019-05-23T07:40:26.210Z,21.2
2019-05-23T07:41:27.210Z,21.3
2019-05-23T07:42:26.185Z,21.5
2019-05-23T07:43:26.217Z,21.3
2019-05-23T07:46:36.287Z,21.4
2019-05-23T07:47:39.813Z,21.3
2019-05-23T07:48:36.318Z,21.3
2019-05-23T07:49:56.344Z,21.4
2019-05-23T07:51:06.399Z,21.4
2019-05-23T07:52:06.416Z,21.3
2019-05-23T07:53:06.425Z,21.2
2019-05-23T07:54:06.436Z,21.0
2019-05-23T07:55:26.442Z,21.1
2019-05-23T07:56:36.462Z,20.8
2019-05-23T07:57:26.491Z,20.6
2019-05-23T07:58:07.567Z,20.6
2019-05-23T07:58:56.518Z,20.5
2019-05-23T07:59:56.618Z,20.4
2019-05-23T08:00:56.564Z,20.2
2019-05-23T08:02:16.791Z,20.0
2019-05-23T08:03:06.808Z,20.1
2019-05-23T08:04:20.205Z,19.7
2019-05-23T08:05:06.782Z,19.6
2019-05-23T08:06:06.766Z,19.6
2019-05-23T08:07:26.979Z,19.4
2019-05-23T08:08:06.977Z,19.4
2019-05-23T08:08:57.046Z,19.6
2019-05-23T08:09:56.923Z,19.8
2019-05-23T08:12:07.049Z,20.4
2019-05-23T08:13:07.039Z,20.3
2019-05-23T08:14:08.751Z,20.5
2019-05-23T08:15:07.072Z,20.5
2019-05-23T08:16:27.037Z,20.7
2019-05-23T08:17:07.069Z,20.7
2019-05-23T08:18:07.081Z,20.8
2019-05-23T08:19:07.123Z,20.8
2019-05-23T08:20:07.109Z,21.0
2019-05-23T08:21:27.132Z,21.0
2019-05-23T08:26:27.294Z,21.7
2019-05-23T08:27:07.321Z,21.7
2019-05-23T08:30:07.320Z,22.3
2019-05-23T08:31:37.544Z,22.4
2019-05-23T08:33:07.409Z,22.5
2019-05-23T08:34:07.425Z,22.3
2019-05-23T08:35:07.433Z,22.2
2019-05-23T08:36:27.447Z,22.2
2019-05-23T08:37:07.545Z,22.2
2019-05-23T08:37:57.479Z,22.3
2019-05-23T08:38:57.496Z,22.5
2019-05-23T08:39:57.506Z,22.7
2019-05-23T08:42:07.545Z,22.9
2019-05-23T08:43:07.746Z,22.8
2019-05-23T08:44:11.215Z,22.9
2019-05-23T08:45:07.689Z,22.8
2019-05-23T08:46:27.719Z,23.0
2019-05-23T08:47:07.750Z,22.9
2019-05-23T08:48:07.784Z,22.9
2019-05-23T08:48:57.803Z,22.9
2019-05-23T08:49:57.804Z,22.8
2019-05-23T08:52:08.068Z,23.0
2019-05-23T08:53:08.092Z,23.2
2019-05-23T08:54:09.304Z,23.4
2019-05-23T08:55:08.117Z,23.5
2019-05-23T08:56:28.264Z,23.4
2019-05-23T08:57:08.241Z,23.3
2019-05-23T08:58:08.356Z,23.1
2019-05-23T08:59:09.431Z,23.1
2019-05-23T08:59:58.298Z,23.2
2019-05-23T09:02:08.319Z,22.6
2019-05-23T09:03:08.344Z,22.8
2019-05-23T09:04:08.403Z,23.1
2019-05-23T09:05:08.412Z,23.2
2019-05-23T09:06:28.488Z,23.4
2019-05-23T09:07:08.550Z,23.6
2019-05-23T09:07:58.488Z,23.7
2019-05-23T09:08:58.496Z,23.6
2019-05-23T09:09:58.518Z,23.4
2019-05-23T09:10:58.752Z,23.4
2019-05-23T09:11:58.721Z,23.3
2019-05-23T09:12:58.800Z,23.2
2019-05-23T09:13:58.837Z,23.1
2019-05-23T09:14:58.724Z,22.9
2019-05-23T09:17:08.786Z,22.8
2019-05-23T09:18:08.768Z,22.9
2019-05-23T09:19:08.839Z,22.9
2019-05-23T09:20:08.838Z,22.8
2019-05-23T09:21:28.871Z,22.9
2019-05-23T09:22:08.895Z,22.8
2019-05-23T09:22:58.917Z,22.7
2019-05-23T09:23:58.878Z,22.8
2019-05-23T09:24:59.020Z,22.6
2019-05-23T09:27:08.995Z,22.3
2019-05-23T09:28:09.062Z,22.2
2019-05-23T09:29:09.067Z,22.3
2019-05-23T09:30:09.114Z,22.0
2019-05-23T09:31:29.113Z,22.1
2019-05-23T09:32:09.154Z,22.1
2019-05-23T09:32:59.210Z,22.0
2019-05-23T09:33:59.176Z,22.1
2019-05-23T09:34:59.187Z,22.2
2019-05-23T09:36:09.846Z,22.2
2019-05-23T09:37:09.223Z,22.0
2019-05-23T09:38:09.307Z,22.1
2019-05-23T09:39:09.272Z,22.0
2019-05-23T09:40:09.281Z,22.1
2019-05-23T09:41:29.330Z,22.1
2019-05-23T09:42:11.975Z,22.2
2019-05-23T09:42:59.468Z,22.1
2019-05-23T09:43:39.482Z,22.2
2019-05-23T09:44:39.509Z,22.3
2019-05-23T09:45:39.531Z,22.6
2019-05-23T09:46:59.742Z,23.1
2019-05-23T09:47:59.700Z,23.1
2019-05-23T09:48:59.647Z,23.5
2019-05-23T09:49:59.649Z,23.7
2019-05-23T09:51:09.729Z,23.7
2019-05-23T09:52:10.124Z,23.5
2019-05-23T09:53:09.788Z,23.3
2019-05-23T09:54:09.744Z,23.3
2019-05-23T09:55:09.821Z,23.2
2019-05-23T09:56:29.851Z,23.2
2019-05-23T09:57:09.861Z,23.1
2019-05-23T09:57:59.993Z,23.0
2019-05-23T09:58:39.870Z,23.0
2019-05-23T09:59:39.883Z,22.9
2019-05-23T10:00:39.891Z,22.9
2019-05-23T10:01:59.922Z,22.8
2019-05-23T10:02:59.953Z,22.7
2019-05-23T10:03:39.955Z,22.7
2019-05-23T10:04:39.983Z,22.7
2019-05-23T10:05:59.989Z,22.6
2019-05-23T10:07:00.119Z,22.8
2019-05-23T10:07:40.057Z,22.8
2019-05-23T10:08:40.122Z,22.7
2019-05-23T10:09:41.338Z,22.9
2019-05-23T10:10:40.163Z,22.7
2019-05-23T10:12:00.181Z,22.9
2019-05-23T10:12:40.205Z,23.1
2019-05-23T10:13:40.225Z,23.1
2019-05-23T10:14:40.218Z,23.2
2019-05-23T10:15:40.248Z,23.4
2019-05-23T10:17:00.309Z,23.8
2019-05-23T10:17:40.269Z,23.8
2019-05-23T10:18:40.299Z,23.9
2019-05-23T10:19:40.300Z,24.2
2019-05-23T10:20:40.315Z,24.4
2019-05-23T10:22:00.462Z,24.5
2019-05-23T10:22:40.357Z,24.3
2019-05-23T10:23:40.404Z,24.4
2019-05-23T10:24:40.416Z,24.4
2019-05-23T10:26:00.444Z,24.7
2019-05-23T10:27:00.687Z,24.8
2019-05-23T10:27:40.547Z,24.9
2019-05-23T10:28:40.556Z,25.0
2019-05-23T10:29:40.574Z,25.0
2019-05-23T10:31:00.605Z,25.3
2019-05-23T10:32:00.611Z,25.5
2019-05-23T10:32:40.632Z,25.5
2019-05-23T10:33:41.847Z,25.6
2019-05-23T10:34:40.659Z,25.6
2019-05-23T10:36:01.214Z,25.6
2019-05-23T10:37:00.721Z,25.6
2019-05-23T10:37:40.735Z,25.6
2019-05-23T10:38:40.765Z,25.4
2019-05-23T10:39:40.765Z,25.0
2019-05-23T10:41:00.841Z,24.9
2019-05-23T10:42:00.838Z,24.8
2019-05-23T10:42:40.883Z,24.7
2019-05-23T10:43:40.891Z,24.9
2019-05-23T10:44:44.690Z,24.6
2019-05-23T10:45:52.183Z,24.9
2019-05-23T10:47:31.050Z,25.2
2019-05-23T10:48:31.064Z,25.2
2019-05-23T10:49:31.089Z,25.3
2019-05-23T10:52:31.112Z,25.4
2019-05-23T10:53:31.137Z,25.5
2019-05-23T10:54:31.134Z,25.7
2019-05-23T10:56:52.530Z,25.6
2019-05-23T10:57:31.979Z,25.7
2019-05-23T10:58:31.209Z,25.4
2019-05-23T10:59:31.251Z,25.5
2019-05-23T11:02:31.332Z,25.0
2019-05-23T11:03:31.340Z,25.1
2019-05-23T11:04:31.425Z,25.1
2019-05-23T11:07:31.404Z,25.4
2019-05-23T11:08:32.562Z,25.5
2019-05-23T11:09:37.618Z,25.4
2019-05-23T11:12:31.573Z,25.3
2019-05-23T11:13:31.590Z,25.3
2019-05-23T11:14:31.649Z,25.0
2019-05-23T11:17:31.699Z,24.6
2019-05-23T11:18:31.711Z,24.4
2019-05-23T11:19:32.059Z,24.4
2019-05-23T11:22:31.818Z,24.2
2019-05-23T11:23:31.848Z,24.4
2019-05-23T11:24:31.910Z,24.5
2019-05-23T11:27:31.916Z,24.7
2019-05-23T11:28:31.937Z,24.9
2019-05-23T11:29:31.953Z,25.2
2019-05-23T11:36:42.062Z,25.6
2019-05-23T11:37:12.072Z,25.5
2019-05-23T11:38:02.100Z,25.5
2019-05-23T11:38:42.103Z,25.5
2019-05-23T11:39:32.111Z,25.7
2019-05-23T11:46:42.237Z,26.0
2019-05-23T11:47:13.151Z,26.0
2019-05-23T11:48:03.248Z,26.1
2019-05-23T11:48:42.262Z,26.2
2019-05-23T11:49:32.322Z,26.1
2019-05-23T11:52:32.361Z,26.6
2019-05-23T11:53:32.368Z,26.8
2019-05-23T11:54:32.428Z,26.8
2019-05-23T11:57:32.432Z,26.4
2019-05-23T11:58:32.918Z,26.4
2019-05-23T12:05:42.540Z,26.0
2019-05-23T12:06:54.079Z,26.0
2019-05-23T12:07:12.561Z,26.0
2019-05-23T12:08:02.591Z,26.1
2019-05-23T12:08:42.646Z,26.1
2019-05-23T12:09:32.639Z,26.1
2019-05-23T12:10:53.860Z,26.0
2019-05-23T12:12:32.678Z,26.5
2019-05-23T12:13:32.678Z,26.6
2019-05-23T12:14:32.713Z,26.7
2019-05-23T12:17:32.749Z,27.0
2019-05-23T12:18:32.763Z,27.0
2019-05-23T12:19:32.786Z,27.0
2019-05-23T12:22:33.168Z,27.1
2019-05-23T12:23:33.033Z,27.3
2019-05-23T12:24:35.428Z,27.4
2019-05-23T12:27:33.121Z,26.7
2019-05-23T12:28:33.164Z,26.2
2019-05-23T12:29:33.167Z,26.2
2019-05-23T12:32:33.225Z,26.7
2019-05-23T12:33:33.340Z,26.7
2019-05-23T12:34:34.390Z,26.8
2019-05-23T12:40:43.339Z,26.5
2019-05-23T12:41:43.365Z,26.4
2019-05-23T12:45:43.431Z,25.6
2019-05-23T12:46:43.472Z,25.5
2019-05-23T12:48:24.455Z,25.3
2019-05-23T12:50:43.516Z,25.2
2019-05-23T12:51:43.520Z,25.0
2019-05-23T12:52:13.548Z,24.8
2019-05-23T12:53:13.558Z,24.7
2019-05-23T12:54:13.587Z,24.6
2019-05-23T12:55:13.602Z,24.6
2019-05-23T12:56:33.609Z,24.6
2019-05-23T12:57:13.648Z,24.6
2019-05-23T12:58:43.694Z,24.7
2019-05-23T12:59:43.833Z,24.8
2019-05-23T13:02:03.738Z,24.5
2019-05-23T13:02:43.775Z,24.5
2019-05-23T13:03:43.749Z,24.4
2019-05-23T13:04:43.804Z,24.6
2019-05-23T13:06:03.775Z,24.8
2019-05-23T13:07:03.797Z,25.0
2019-05-23T13:07:43.830Z,25.3
2019-05-23T13:08:43.845Z,25.4
2019-05-23T13:09:43.873Z,25.8
2019-05-23T13:11:03.854Z,26.1
2019-05-23T13:12:03.863Z,26.2
2019-05-23T13:12:43.915Z,26.3
2019-05-23T13:13:43.900Z,26.4
2019-05-23T13:14:44.035Z,26.2
2019-05-23T13:16:03.958Z,26.0
2019-05-23T13:17:03.977Z,26.0
2019-05-23T13:17:43.987Z,26.2
2019-05-23T13:18:44.067Z,26.2
2019-05-23T13:19:44.029Z,26.2
2019-05-23T13:21:04.044Z,26.5
2019-05-23T13:22:04.144Z,26.4
2019-05-23T13:22:44.158Z,26.6
2019-05-23T13:23:34.145Z,26.7
2019-05-23T13:24:51.106Z,26.8
2019-05-23T13:25:55.250Z,26.8
2019-05-23T13:26:44.222Z,27.1
2019-05-23T13:30:44.243Z,26.0
2019-05-23T13:31:44.257Z,26.1
2019-05-23T13:35:44.303Z,26.2
2019-05-23T13:36:34.421Z,26.0
2019-05-23T13:37:16.923Z,25.9
2019-05-23T13:38:14.354Z,26.0
2019-05-23T13:39:14.437Z,26.0
2019-05-23T13:40:14.440Z,25.9
2019-05-23T13:41:34.480Z,26.3
2019-05-23T13:42:14.481Z,26.2
2019-05-23T13:43:07.585Z,26.3
2019-05-23T13:43:44.662Z,26.3
2019-05-23T13:44:44.616Z,26.5
2019-05-23T13:46:04.649Z,26.8
2019-05-23T13:47:04.677Z,26.8
2019-05-23T13:47:44.670Z,26.9
2019-05-23T13:48:35.889Z,26.8
2019-05-23T13:49:34.683Z,26.6
2019-05-23T13:51:44.718Z,26.6
2019-05-23T13:55:44.770Z,26.9
2019-05-23T13:56:34.755Z,26.7
2019-05-23T13:57:14.786Z,26.8
2019-05-23T13:58:14.809Z,26.8
2019-05-23T13:59:15.062Z,26.9
2019-05-23T14:00:34.805Z,26.8
2019-05-23T14:01:34.831Z,26.3
2019-05-23T14:02:14.854Z,26.2
2019-05-23T14:03:04.948Z,26.1
2019-05-23T14:03:44.998Z,26.2
2019-05-23T14:04:44.980Z,26.2
2019-05-23T14:06:05.043Z,26.2
2019-05-23T14:07:35.064Z,26.3
2019-05-23T14:08:35.084Z,26.2
2019-05-23T14:09:35.119Z,26.0
2019-05-23T14:10:56.110Z,25.9
2019-05-23T14:12:35.155Z,25.7
2019-05-23T14:13:35.198Z,25.7
2019-05-23T14:14:35.271Z,25.8
2019-05-23T14:17:35.279Z,26.2
2019-05-23T14:18:35.451Z,26.3
2019-05-23T14:19:35.449Z,26.3
2019-05-23T14:22:35.533Z,26.3
2019-05-23T14:23:35.473Z,26.3
2019-05-23T14:24:37.756Z,26.3
2019-05-23T14:27:35.570Z,26.2
2019-05-23T14:28:35.583Z,26.2
2019-05-23T14:29:35.620Z,26.1
2019-05-23T14:32:35.666Z,25.7
2019-05-23T14:33:35.650Z,25.5
2019-05-23T14:34:35.660Z,25.5
2019-05-23T14:37:35.700Z,25.1
2019-05-23T14:38:35.752Z,25.1
2019-05-23T14:39:35.781Z,25.0
2019-05-23T14:42:35.824Z,24.7
2019-05-23T14:43:36.150Z,24.7
2019-05-23T14:44:35.849Z,24.7
2019-05-23T14:47:35.914Z,24.7
2019-05-23T14:48:35.925Z,24.6
2019-05-23T14:49:35.945Z,24.6
2019-05-23T14:52:35.995Z,24.2
2019-05-23T14:53:36.002Z,24.2
2019-05-23T14:54:36.031Z,24.2
2019-05-23T14:57:36.109Z,24.1
2019-05-23T14:58:36.188Z,24.1
2019-05-23T14:59:36.184Z,24.2
2019-05-23T15:02:36.276Z,24.3
2019-05-23T15:03:36.281Z,24.3
2019-05-23T15:04:36.276Z,24.1
2019-05-23T15:07:36.374Z,23.9
2019-05-23T15:08:50.115Z,23.9
2019-05-23T15:09:37.603Z,23.8
2019-05-23T15:12:36.500Z,23.8
2019-05-23T15:13:36.454Z,23.6
2019-05-23T15:14:36.489Z,23.7
2019-05-23T15:17:36.567Z,23.5
2019-05-23T15:18:36.649Z,23.5
2019-05-23T15:19:42.021Z,23.5
2019-05-23T15:22:36.868Z,23.6
2019-05-23T15:23:36.808Z,23.5
2019-05-23T15:24:36.993Z,23.6
2019-05-23T15:26:37.024Z,23.2
2019-05-23T15:27:37.075Z,23.3
2019-05-23T15:28:37.053Z,23.4
2019-05-23T15:29:37.050Z,23.3
2019-05-23T15:32:01.446Z,23.3
2019-05-23T15:32:37.129Z,23.3
2019-05-23T15:33:37.114Z,23.3
2019-05-23T15:34:37.124Z,23.4
2019-05-23T15:36:37.237Z,23.4
2019-05-23T15:37:37.267Z,23.5
2019-05-23T15:38:37.267Z,23.4
2019-05-23T15:39:37.281Z,23.3
2019-05-23T15:41:47.387Z,23.3
2019-05-23T15:42:37.354Z,23.3
2019-05-23T15:43:37.369Z,23.3
2019-05-23T15:44:37.362Z,23.3
2019-05-23T15:46:37.466Z,23.2
2019-05-23T15:47:37.465Z,23.0
2019-05-23T15:48:37.469Z,23.1
2019-05-23T15:49:37.493Z,23.0
2019-05-23T15:51:47.523Z,23.0
2019-05-23T15:52:37.531Z,22.8
2019-05-23T15:53:37.672Z,22.9
2019-05-23T15:54:37.560Z,22.9
2019-05-23T15:56:37.598Z,23.1
2019-05-23T15:57:37.675Z,23.2
2019-05-23T15:58:37.705Z,23.2
2019-05-23T15:59:37.735Z,23.4
2019-05-23T16:01:47.759Z,23.5
2019-05-23T16:02:37.769Z,23.6
2019-05-23T16:03:37.780Z,23.6
2019-05-23T16:04:38.621Z,23.6
2019-05-23T16:06:37.871Z,23.4
2019-05-23T16:07:37.917Z,23.5
2019-05-23T16:08:37.894Z,23.6
2019-05-23T16:09:37.903Z,23.5
2019-05-23T16:12:58.513Z,23.7
2019-05-23T16:13:17.943Z,23.9
2019-05-23T16:14:07.983Z,23.9
2019-05-23T16:15:28.159Z,24.3
2019-05-23T16:16:18.009Z,24.5
2019-05-23T16:17:18.068Z,24.5
2019-05-23T16:18:18.069Z,24.9
2019-05-23T16:19:18.081Z,25.0
2019-05-23T16:20:38.098Z,25.3
2019-05-23T16:21:18.118Z,25.3
2019-05-23T16:22:08.124Z,25.7
2019-05-23T16:23:08.150Z,26.0
2019-05-23T16:24:08.145Z,26.0
2019-05-23T16:26:18.351Z,26.0
2019-05-23T16:27:08.213Z,26.2
2019-05-23T16:28:08.249Z,26.5
2019-05-23T16:29:08.312Z,26.3
2019-05-23T16:30:08.271Z,26.4
2019-05-23T16:31:08.280Z,26.4
2019-05-23T16:32:08.411Z,26.4
2019-05-23T16:33:08.383Z,26.6
2019-05-23T16:34:08.382Z,26.3
2019-05-23T16:35:28.421Z,26.4
2019-05-23T16:36:08.421Z,26.5
2019-05-23T16:37:09.675Z,26.3
2019-05-23T16:38:08.483Z,26.3
2019-05-23T16:39:08.505Z,26.4
2019-05-23T16:41:11.299Z,26.4
2019-05-23T16:42:08.587Z,26.2
2019-05-23T16:43:08.600Z,26.2
2019-05-23T16:44:08.708Z,26.1
2019-05-23T16:46:08.732Z,25.7
2019-05-23T16:47:08.752Z,25.6
2019-05-23T16:48:09.903Z,25.6
2019-05-23T16:49:08.789Z,25.4
2019-05-23T16:51:08.826Z,24.8
2019-05-23T16:52:08.831Z,24.8
2019-05-23T16:53:08.861Z,24.8
2019-05-23T16:54:08.892Z,24.7
2019-05-23T16:56:08.910Z,24.8
2019-05-23T16:57:08.946Z,24.9
2019-05-23T16:58:08.957Z,25.0
2019-05-23T16:59:09.273Z,25.2
2019-05-23T17:01:20.263Z,25.6
2019-05-23T17:02:09.077Z,25.5
2019-05-23T17:03:09.126Z,25.6
2019-05-23T17:04:09.110Z,25.6
2019-05-23T17:06:09.125Z,25.7
2019-05-23T17:07:09.148Z,25.7
2019-05-23T17:08:09.191Z,25.4
2019-05-23T17:09:09.171Z,25.1
2019-05-23T17:11:09.201Z,24.8
2019-05-23T17:12:09.441Z,24.7
2019-05-23T17:13:09.219Z,24.6
2019-05-23T17:14:09.225Z,24.5
2019-05-23T17:16:09.449Z,24.0
2019-05-23T17:17:09.426Z,23.9
2019-05-23T17:18:09.447Z,23.8
2019-05-23T17:21:39.548Z,23.3
2019-05-23T17:22:39.545Z,23.1
2019-05-23T17:23:39.610Z,23.1
2019-05-23T17:24:40.185Z,22.9
2019-05-23T17:26:39.658Z,22.8
2019-05-23T17:27:39.667Z,22.7
2019-05-23T17:28:39.679Z,22.6
2019-05-23T17:29:39.710Z,22.5
2019-05-23T17:30:49.739Z,22.3
2019-05-23T17:31:39.766Z,22.3
2019-05-23T17:32:39.751Z,22.1
2019-05-23T17:33:39.763Z,22.1
2019-05-23T17:34:39.787Z,22.0
2019-05-23T17:35:49.835Z,22.0
2019-05-23T17:37:19.862Z,21.7
2019-05-23T17:38:19.996Z,21.6
2019-05-23T17:39:19.936Z,21.5
2019-05-23T17:41:09.921Z,21.3
2019-05-23T17:42:09.927Z,21.2
2019-05-23T17:42:49.947Z,21.2
2019-05-23T17:43:19.965Z,21.0
2019-05-23T17:45:39.984Z,21.0
2019-05-23T17:49:20.060Z,20.6
2019-05-23T17:50:40.083Z,20.7
2019-05-23T17:53:50.117Z,20.3
2019-05-23T17:56:10.177Z,20.2
2019-05-23T17:57:10.195Z,20.1
2019-05-23T17:58:10.334Z,20.1
2019-05-23T17:59:10.302Z,20.0
2019-05-23T18:00:20.312Z,20.0
2019-05-23T18:01:10.334Z,20.0
2019-05-23T18:02:10.428Z,19.9
2019-05-23T18:03:10.467Z,19.9
2019-05-23T18:04:10.480Z,19.8
2019-05-23T18:05:20.532Z,19.8
2019-05-23T18:06:10.678Z,19.8
2019-05-23T18:07:10.554Z,19.7
2019-05-23T18:08:10.557Z,19.8
2019-05-23T18:09:10.658Z,19.7
2019-05-23T18:10:20.656Z,19.7
2019-05-23T18:11:10.659Z,19.7
2019-05-23T18:12:10.666Z,19.6
2019-05-23T18:13:10.674Z,19.6
2019-05-23T18:14:10.693Z,19.6
2019-05-23T18:15:20.708Z,19.6
2019-05-23T18:16:10.739Z,19.5
2019-05-23T18:17:11.454Z,19.5
2019-05-23T18:18:10.854Z,19.4
2019-05-23T18:19:10.860Z,19.4
2019-05-23T18:20:20.893Z,19.3
2019-05-23T18:21:10.940Z,19.3
2019-05-23T18:22:11.110Z,19.3
2019-05-23T18:23:11.095Z,19.2
2019-05-23T18:24:11.092Z,19.2
2019-05-23T18:25:21.121Z,19.2
2019-05-23T18:26:11.181Z,19.3
2019-05-23T18:27:11.162Z,19.1
2019-05-23T18:28:11.347Z,19.2
2019-05-23T18:29:11.220Z,19.2
2019-05-23T18:31:12.136Z,19.0
2019-05-23T18:32:11.264Z,19.0
2019-05-23T18:33:11.323Z,18.9
2019-05-23T18:34:11.385Z,18.9
2019-05-23T18:35:31.389Z,18.8
2019-05-23T18:36:11.424Z,18.7
2019-05-23T18:37:11.420Z,18.5
2019-05-23T18:38:11.525Z,18.6
2019-05-23T18:39:11.534Z,18.4
2019-05-23T18:41:11.592Z,18.2
2019-05-23T18:42:11.602Z,18.2
2019-05-23T18:43:11.651Z,18.1
2019-05-23T18:44:11.645Z,18.0
2019-05-23T18:46:11.664Z,18.0
2019-05-23T18:47:11.664Z,18.0
2019-05-23T18:48:11.744Z,17.9
2019-05-23T18:49:11.790Z,17.8
2019-05-23T18:50:32.512Z,17.8
2019-05-23T18:51:11.857Z,17.8
2019-05-23T18:52:41.961Z,17.8
2019-05-23T18:53:51.962Z,17.8
2019-05-23T18:54:41.984Z,17.7
2019-05-23T18:55:11.981Z,17.9
2019-05-23T18:56:12.005Z,17.8
2019-05-23T18:57:12.077Z,17.7